Lowlands Queen — 3FTU4 — position and weather

sailwx.info

Track history (hours):
 
Tides and Currents Weather Stations Pressure Air Temp Water Temp Dewpoint Dewpoint Depression Visibility Wind Speed Wind Dir Waves Ship Positions

Lowlands Queen

Last reported at 2014-Dec-18 13:15 UTC. Time now 2014-Dec-21 13:29 UTC.
Position N 01°51' E 102°28'.

Length 225 m; draft 14.1 m.

Type: Cargo ship. MMSI: 370913000.

Date/timePositionNaut miles runAvg speedWind from/ knotsBaromVisibWave heightAir tempDewpointWater temp
2014-Dec-18 13:15N 01°51' E 102°28'2413.1
2014-Dec-18 11:28N 01°40' E 102°49'6513.0
2014-Dec-18 06:28N 01°09' E 103°46'1111.6
2014-Dec-18 05:33N 01°14' E 103°55'3 2.6
2014-Dec-18 04:31N 01°17' E 103°56'0 0.0
2014-Dec-18 03:25N 01°17' E 103°56'0 0.0
2014-Dec-18 01:31N 01°17' E 103°56'0 0.1
2014-Dec-18 00:31N 01°17' E 103°56'0 0.0
2014-Dec-17 23:25N 01°17' E 103°56'0 0.0
2014-Dec-17 22:31N 01°17' E 103°56'0 0.0
2014-Dec-17 21:19N 01°17' E 103°56'0 0.0
2014-Dec-17 20:25N 01°17' E 103°56'0 0.0
2014-Dec-17 19:31N 01°17' E 103°56'0 0.0
2014-Dec-17 18:13N 01°17' E 103°56'0 0.0
2014-Dec-17 17:31N 01°17' E 103°56'0 0.0
2014-Dec-17 16:25N 01°17' E 103°56'0 0.1
2014-Dec-17 15:27N 01°17' E 103°56'3 3.6
2014-Dec-17 14:33N 01°16' E 103°59'8 8.0
2014-Dec-17 13:33N 01°17' E 104°07'  
2014-Dec-14 20:31S 03°52' E 114°25'1010.3
2014-Dec-14 19:34S 03°43' E 114°27'1 0.7
2014-Dec-14 18:28S 03°43' E 114°28'0 0.1
2014-Dec-14 17:31S 03°43' E 114°28'0 0.0
2014-Dec-14 16:31S 03°43' E 114°28'0 0.1
2014-Dec-14 15:31S 03°43' E 114°28'0 0.0
2014-Dec-14 14:31S 03°43' E 114°28'0 0.0
2014-Dec-14 13:16S 03°43' E 114°28'0 0.0
2014-Dec-14 12:25S 03°43' E 114°28'0 0.1
2014-Dec-14 11:31S 03°43' E 114°28'0 0.0
2014-Dec-14 10:31S 03°43' E 114°28'0 0.1
2014-Dec-14 09:31S 03°43' E 114°28'0 0.1
2014-Dec-14 08:25S 03°43' E 114°28'0 0.1
2014-Dec-14 07:31S 03°43' E 114°28'0 0.1
2014-Dec-14 06:31S 03°43' E 114°28'0 0.0
2014-Dec-14 05:31S 03°43' E 114°28'0 0.0
2014-Dec-14 04:31S 03°43' E 114°28'0 0.1
2014-Dec-14 03:31S 03°43' E 114°28'0 0.0
2014-Dec-14 02:28S 03°43' E 114°28'0 0.0
2014-Dec-14 01:31S 03°43' E 114°28'0 0.0
2014-Dec-14 00:31S 03°43' E 114°28'0 0.0
2014-Dec-13 23:28S 03°43' E 114°28'0 0.1
2014-Dec-13 22:22S 03°43' E 114°28'0 0.0
2014-Dec-13 18:28S 03°43' E 114°28'0 0.1
2014-Dec-13 17:31S 03°43' E 114°28'0 0.1
2014-Dec-13 16:31S 03°43' E 114°28'0 0.0
2014-Dec-13 14:31S 03°43' E 114°28'0 0.0
2014-Dec-13 13:25S 03°43' E 114°28'0 0.0
2014-Dec-13 12:31S 03°43' E 114°28'0 0.0
2014-Dec-13 11:31S 03°43' E 114°28'0 0.0
2014-Dec-13 10:22S 03°43' E 114°28'0 0.1
2014-Dec-13 09:31S 03°43' E 114°28'0 0.1
2014-Dec-13 08:31S 03°43' E 114°28'0 0.0
2014-Dec-13 07:28S 03°43' E 114°28'0 0.0
2014-Dec-13 06:31S 03°43' E 114°28'0 0.1
2014-Dec-13 05:31S 03°43' E 114°28'0 0.0
2014-Dec-13 04:31S 03°43' E 114°28'0 0.0
2014-Dec-13 03:31S 03°43' E 114°28'0 0.1
2014-Dec-13 02:31S 03°43' E 114°28'0 0.0
2014-Dec-13 01:31S 03°43' E 114°28'0 0.1
2014-Dec-13 00:31S 03°43' E 114°28'0 0.0
2014-Dec-12 23:31S 03°43' E 114°28'0 0.0
2014-Dec-12 22:31S 03°43' E 114°28'0 0.1
2014-Dec-12 21:31S 03°43' E 114°28'0 0.1
2014-Dec-12 20:31S 03°43' E 114°28'0 0.0
2014-Dec-12 19:31S 03°43' E 114°28'0 0.1
2014-Dec-12 18:22S 03°43' E 114°28'0 0.0
2014-Dec-12 17:31S 03°43' E 114°28'0 0.0
2014-Dec-12 16:25S 03°43' E 114°28'0 0.1
2014-Dec-12 15:31S 03°43' E 114°28'0 0.1
2014-Dec-12 14:31S 03°43' E 114°28'0 0.0
2014-Dec-12 13:31S 03°43' E 114°28'0 0.0
2014-Dec-12 12:31S 03°43' E 114°28'0 0.1
2014-Dec-12 11:28S 03°43' E 114°28'0 0.1
2014-Dec-12 10:31S 03°43' E 114°28'0 0.0
2014-Dec-12 09:31S 03°43' E 114°28'0 0.1
2014-Dec-12 08:31S 03°43' E 114°28'0 0.0
2014-Dec-12 07:31S 03°43' E 114°28'0 0.0
2014-Dec-12 06:28S 03°43' E 114°28'0 0.1
2014-Dec-12 05:19S 03°43' E 114°28'0 0.2
2014-Dec-12 04:31S 03°43' E 114°28'0 0.0
2014-Dec-12 03:31S 03°43' E 114°28'0 0.0
2014-Dec-12 02:31S 03°43' E 114°28'0 0.0
2014-Dec-12 01:31S 03°43' E 114°28'0 0.0
2014-Dec-12 00:31S 03°43' E 114°28'0 0.0
2014-Dec-11 23:31S 03°43' E 114°28'0 0.0
2014-Dec-11 22:31S 03°43' E 114°28'0 0.1
2014-Dec-11 21:31S 03°43' E 114°28'0 0.0
2014-Dec-11 20:31S 03°43' E 114°28'0 0.1
2014-Dec-11 19:28S 03°43' E 114°28'0 0.1
2014-Dec-11 18:31S 03°43' E 114°28'0 0.0
2014-Dec-11 17:31S 03°43' E 114°28'0 0.0
2014-Dec-11 16:31S 03°43' E 114°28'0 0.0
2014-Dec-11 15:31S 03°43' E 114°28'0 0.0
2014-Dec-11 14:31S 03°43' E 114°28'0 0.0
2014-Dec-11 13:31S 03°43' E 114°28'0 0.0
2014-Dec-11 12:28S 03°43' E 114°28'0 0.0
2014-Dec-11 11:31S 03°43' E 114°28'0 0.0
2014-Dec-11 10:31S 03°43' E 114°28'0 0.1
2014-Dec-11 09:28S 03°43' E 114°28'0 0.1
2014-Dec-11 08:31S 03°43' E 114°28'0 0.0
2014-Dec-11 07:31S 03°43' E 114°28'0 0.0
2014-Dec-11 06:31S 03°43' E 114°28'0 0.0
2014-Dec-11 05:28S 03°43' E 114°28'0 0.1
2014-Dec-11 04:31S 03°43' E 114°28'0 0.1
2014-Dec-11 03:31S 03°43' E 114°28'0 0.0
2014-Dec-11 02:31S 03°43' E 114°28'0 0.0
2014-Dec-11 01:28S 03°43' E 114°28'0 0.1
2014-Dec-11 00:07S 03°43' E 114°28'0 0.1
2014-Dec-10 23:28S 03°43' E 114°28'0 0.0
2014-Dec-10 22:31S 03°43' E 114°28'0 0.0
2014-Dec-10 21:31S 03°43' E 114°28'0 0.0
2014-Dec-10 20:31S 03°43' E 114°28'0 0.1
2014-Dec-10 19:25S 03°43' E 114°28'0 0.0
2014-Dec-10 18:31S 03°43' E 114°28'0 0.2
2014-Dec-10 17:31S 03°43' E 114°28'0 0.0
2014-Dec-10 16:31S 03°43' E 114°28'0 0.1
2014-Dec-10 15:31S 03°43' E 114°28'0 0.0
2014-Dec-10 14:31S 03°43' E 114°28'0 0.1
2014-Dec-10 13:31S 03°43' E 114°28'0 0.0
2014-Dec-10 12:31S 03°43' E 114°28'0 0.1
2014-Dec-10 11:28S 03°43' E 114°28'0 0.1
2014-Dec-10 10:31S 03°43' E 114°28'0 0.0
2014-Dec-10 09:31S 03°43' E 114°28'0 0.0
2014-Dec-10 08:31S 03°43' E 114°28'0 0.0
2014-Dec-10 07:28S 03°43' E 114°28'0 0.1
2014-Dec-10 06:19S 03°43' E 114°28'0 0.0
2014-Dec-10 05:31S 03°43' E 114°28'0 0.0
2014-Dec-10 04:31S 03°43' E 114°28'0 0.1
2014-Dec-10 03:31S 03°43' E 114°28'0 0.0
2014-Dec-10 02:31S 03°43' E 114°28'0 0.1
2014-Dec-10 01:33S 03°43' E 114°28'0 0.1
2014-Dec-10 00:33S 03°43' E 114°28'4 3.7
2014-Dec-09 23:33S 03°47' E 114°28'  
Track history (hours):
 
Tides and Currents Weather Stations Pressure Air Temp Water Temp Dewpoint Dewpoint Depression Visibility Wind Speed Wind Dir Waves Ship Positions

Lowlands Queen

Last reported at 2014-Dec-18 13:15 UTC. Time now 2014-Dec-21 13:29 UTC.
Position N 01°51' E 102°28'.

Length 225 m; draft 14.1 m.

Type: Cargo ship. MMSI: 370913000.

Date/timePositionNaut miles runAvg speedWind from/ knotsBaromVisibWave heightAir tempDewpointWater temp
2014-Dec-18 13:15N 01°51' E 102°28'2413.1
2014-Dec-18 11:28N 01°40' E 102°49'6513.0
2014-Dec-18 06:28N 01°09' E 103°46'1111.6
2014-Dec-18 05:33N 01°14' E 103°55'3 2.6
2014-Dec-18 04:31N 01°17' E 103°56'0 0.0
2014-Dec-18 03:25N 01°17' E 103°56'0 0.0
2014-Dec-18 01:31N 01°17' E 103°56'0 0.1
2014-Dec-18 00:31N 01°17' E 103°56'0 0.0
2014-Dec-17 23:25N 01°17' E 103°56'0 0.0
2014-Dec-17 22:31N 01°17' E 103°56'0 0.0
2014-Dec-17 21:19N 01°17' E 103°56'0 0.0
2014-Dec-17 20:25N 01°17' E 103°56'0 0.0
2014-Dec-17 19:31N 01°17' E 103°56'0 0.0
2014-Dec-17 18:13N 01°17' E 103°56'0 0.0
2014-Dec-17 17:31N 01°17' E 103°56'0 0.0
2014-Dec-17 16:25N 01°17' E 103°56'0 0.1
2014-Dec-17 15:27N 01°17' E 103°56'3 3.6
2014-Dec-17 14:33N 01°16' E 103°59'8 8.0
2014-Dec-17 13:33N 01°17' E 104°07'  
2014-Dec-14 20:31S 03°52' E 114°25'1010.3
2014-Dec-14 19:34S 03°43' E 114°27'1 0.7
2014-Dec-14 18:28S 03°43' E 114°28'0 0.1
2014-Dec-14 17:31S 03°43' E 114°28'0 0.0
2014-Dec-14 16:31S 03°43' E 114°28'0 0.1
2014-Dec-14 15:31S 03°43' E 114°28'0 0.0
2014-Dec-14 14:31S 03°43' E 114°28'0 0.0
2014-Dec-14 13:16S 03°43' E 114°28'0 0.0
2014-Dec-14 12:25S 03°43' E 114°28'0 0.1
2014-Dec-14 11:31S 03°43' E 114°28'0 0.0
2014-Dec-14 10:31S 03°43' E 114°28'0 0.1
2014-Dec-14 09:31S 03°43' E 114°28'0 0.1
2014-Dec-14 08:25S 03°43' E 114°28'0 0.1
2014-Dec-14 07:31S 03°43' E 114°28'0 0.1
2014-Dec-14 06:31S 03°43' E 114°28'0 0.0
2014-Dec-14 05:31S 03°43' E 114°28'0 0.0
2014-Dec-14 04:31S 03°43' E 114°28'0 0.1
2014-Dec-14 03:31S 03°43' E 114°28'0 0.0
2014-Dec-14 02:28S 03°43' E 114°28'0 0.0
2014-Dec-14 01:31S 03°43' E 114°28'0 0.0
2014-Dec-14 00:31S 03°43' E 114°28'0 0.0
2014-Dec-13 23:28S 03°43' E 114°28'0 0.1
2014-Dec-13 22:22S 03°43' E 114°28'0 0.0
2014-Dec-13 18:28S 03°43' E 114°28'0 0.1
2014-Dec-13 17:31S 03°43' E 114°28'0 0.1
2014-Dec-13 16:31S 03°43' E 114°28'0 0.0
2014-Dec-13 14:31S 03°43' E 114°28'0 0.0
2014-Dec-13 13:25S 03°43' E 114°28'0 0.0
2014-Dec-13 12:31S 03°43' E 114°28'0 0.0
2014-Dec-13 11:31S 03°43' E 114°28'0 0.0
2014-Dec-13 10:22S 03°43' E 114°28'0 0.1
2014-Dec-13 09:31S 03°43' E 114°28'0 0.1
2014-Dec-13 08:31S 03°43' E 114°28'0 0.0
2014-Dec-13 07:28S 03°43' E 114°28'0 0.0
2014-Dec-13 06:31S 03°43' E 114°28'0 0.1
2014-Dec-13 05:31S 03°43' E 114°28'0 0.0
2014-Dec-13 04:31S 03°43' E 114°28'0 0.0
2014-Dec-13 03:31S 03°43' E 114°28'0 0.1
2014-Dec-13 02:31S 03°43' E 114°28'0 0.0
2014-Dec-13 01:31S 03°43' E 114°28'0 0.1
2014-Dec-13 00:31S 03°43' E 114°28'0 0.0
2014-Dec-12 23:31S 03°43' E 114°28'0 0.0
2014-Dec-12 22:31S 03°43' E 114°28'0 0.1
2014-Dec-12 21:31S 03°43' E 114°28'0 0.1
2014-Dec-12 20:31S 03°43' E 114°28'0 0.0
2014-Dec-12 19:31S 03°43' E 114°28'0 0.1
2014-Dec-12 18:22S 03°43' E 114°28'0 0.0
2014-Dec-12 17:31S 03°43' E 114°28'0 0.0
2014-Dec-12 16:25S 03°43' E 114°28'0 0.1
2014-Dec-12 15:31S 03°43' E 114°28'0 0.1
2014-Dec-12 14:31S 03°43' E 114°28'0 0.0
2014-Dec-12 13:31S 03°43' E 114°28'0 0.0
2014-Dec-12 12:31S 03°43' E 114°28'0 0.1
2014-Dec-12 11:28S 03°43' E 114°28'0 0.1
2014-Dec-12 10:31S 03°43' E 114°28'0 0.0
2014-Dec-12 09:31S 03°43' E 114°28'0 0.1
2014-Dec-12 08:31S 03°43' E 114°28'0 0.0
2014-Dec-12 07:31S 03°43' E 114°28'0 0.0
2014-Dec-12 06:28S 03°43' E 114°28'0 0.1
2014-Dec-12 05:19S 03°43' E 114°28'0 0.2
2014-Dec-12 04:31S 03°43' E 114°28'0 0.0
2014-Dec-12 03:31S 03°43' E 114°28'0 0.0
2014-Dec-12 02:31S 03°43' E 114°28'0 0.0
2014-Dec-12 01:31S 03°43' E 114°28'0 0.0
2014-Dec-12 00:31S 03°43' E 114°28'0 0.0
2014-Dec-11 23:31S 03°43' E 114°28'0 0.0
2014-Dec-11 22:31S 03°43' E 114°28'0 0.1
2014-Dec-11 21:31S 03°43' E 114°28'0 0.0
2014-Dec-11 20:31S 03°43' E 114°28'0 0.1
2014-Dec-11 19:28S 03°43' E 114°28'0 0.1
2014-Dec-11 18:31S 03°43' E 114°28'0 0.0
2014-Dec-11 17:31S 03°43' E 114°28'0 0.0
2014-Dec-11 16:31S 03°43' E 114°28'0 0.0
2014-Dec-11 15:31S 03°43' E 114°28'0 0.0
2014-Dec-11 14:31S 03°43' E 114°28'0 0.0
2014-Dec-11 13:31S 03°43' E 114°28'0 0.0
2014-Dec-11 12:28S 03°43' E 114°28'0 0.0
2014-Dec-11 11:31S 03°43' E 114°28'0 0.0
2014-Dec-11 10:31S 03°43' E 114°28'0 0.1
2014-Dec-11 09:28S 03°43' E 114°28'0 0.1
2014-Dec-11 08:31S 03°43' E 114°28'0 0.0
2014-Dec-11 07:31S 03°43' E 114°28'0 0.0
2014-Dec-11 06:31S 03°43' E 114°28'0 0.0
2014-Dec-11 05:28S 03°43' E 114°28'0 0.1
2014-Dec-11 04:31S 03°43' E 114°28'0 0.1
2014-Dec-11 03:31S 03°43' E 114°28'0 0.0
2014-Dec-11 02:31S 03°43' E 114°28'0 0.0
2014-Dec-11 01:28S 03°43' E 114°28'0 0.1
2014-Dec-11 00:07S 03°43' E 114°28'0 0.1
2014-Dec-10 23:28S 03°43' E 114°28'0 0.0
2014-Dec-10 22:31S 03°43' E 114°28'0 0.0
2014-Dec-10 21:31S 03°43' E 114°28'0 0.0
2014-Dec-10 20:31S 03°43' E 114°28'0 0.1
2014-Dec-10 19:25S 03°43' E 114°28'0 0.0
2014-Dec-10 18:31S 03°43' E 114°28'0 0.2
2014-Dec-10 17:31S 03°43' E 114°28'0 0.0
2014-Dec-10 16:31S 03°43' E 114°28'0 0.1
2014-Dec-10 15:31S 03°43' E 114°28'0 0.0
2014-Dec-10 14:31S 03°43' E 114°28'0 0.1
2014-Dec-10 13:31S 03°43' E 114°28'0 0.0
2014-Dec-10 12:31S 03°43' E 114°28'0 0.1
2014-Dec-10 11:28S 03°43' E 114°28'0 0.1
2014-Dec-10 10:31S 03°43' E 114°28'0 0.0
2014-Dec-10 09:31S 03°43' E 114°28'0 0.0
2014-Dec-10 08:31S 03°43' E 114°28'0 0.0
2014-Dec-10 07:28S 03°43' E 114°28'0 0.1
2014-Dec-10 06:19S 03°43' E 114°28'0 0.0
2014-Dec-10 05:31S 03°43' E 114°28'0 0.0
2014-Dec-10 04:31S 03°43' E 114°28'0 0.1
2014-Dec-10 03:31S 03°43' E 114°28'0 0.0
2014-Dec-10 02:31S 03°43' E 114°28'0 0.1
2014-Dec-10 01:33S 03°43' E 114°28'0 0.1
2014-Dec-10 00:33S 03°43' E 114°28'4 3.7
2014-Dec-09 23:33S 03°47' E 114°28'  

Dump ship's entire track history